Time;durP1;ratioP1;P1;durP2;ratioP2;P2;SDS_P1;SDS_P2;PMS_P1;PMS_P2;Temp;Humidity;BMP_temperature;BMP_pressure;BME280_temperature;BME280_humidity;BME280_pressure;Samples;Min_cycle;Max_cycle;Signal;HPM_P1;HPM_P2
2021/01/20 00:01:26;;;;;;;39.70;33.53;;;17.70;99.90;;;;;;5073008;28;20032;-28
2021/01/20 00:03:51;;;;;;;49.97;35.22;;;17.60;99.90;;;;;;5071315;28;20017;-28
2021/01/20 00:06:17;;;;;;;40.60;33.33;;;17.60;99.90;;;;;;5072862;28;20031;-28
2021/01/20 00:08:43;;;;;;;42.10;33.45;;;17.60;99.90;;;;;;5072195;28;20029;-28
2021/01/20 00:11:09;;;;;;;39.03;31.23;;;17.60;99.90;;;;;;5072259;28;20593;-28
2021/01/20 00:13:35;;;;;;;37.83;30.35;;;17.60;99.90;;;;;;5072463;28;20074;-29
2021/01/20 00:16:00;;;;;;;39.15;31.73;;;17.50;99.90;;;;;;5071159;28;20027;-28
2021/01/20 00:18:26;;;;;;;39.58;31.95;;;17.50;99.90;;;;;;5072457;28;20028;-28
2021/01/20 00:20:52;;;;;;;35.40;28.98;;;17.50;99.90;;;;;;5071182;28;20052;-28
2021/01/20 00:23:18;;;;;;;36.28;28.25;;;17.50;99.90;;;;;;5072707;28;20024;-28
2021/01/20 00:25:44;;;;;;;34.33;27.27;;;17.40;99.90;;;;;;5072467;28;20027;-28
2021/01/20 00:28:10;;;;;;;33.13;27.70;;;17.50;99.90;;;;;;5072215;28;20065;-28
2021/01/20 00:30:35;;;;;;;35.40;28.30;;;17.40;99.90;;;;;;5070062;28;20029;-28
2021/01/20 00:33:01;;;;;;;33.17;26.85;;;17.40;99.90;;;;;;5072437;28;20028;-29
2021/01/20 00:35:27;;;;;;;30.48;26.17;;;17.40;99.90;;;;;;5070954;28;20052;-28
2021/01/20 00:37:53;;;;;;;32.30;26.25;;;17.40;99.90;;;;;;5072279;28;20025;-28
2021/01/20 00:40:19;;;;;;;28.80;24.75;;;17.30;99.90;;;;;;5072281;28;20021;-28
2021/01/20 00:42:45;;;;;;;32.53;25.77;;;17.40;99.90;;;;;;5072680;28;20020;-28
2021/01/20 00:45:11;;;;;;;36.05;25.80;;;17.30;99.90;;;;;;5072965;28;20025;-28
2021/01/20 00:47:37;;;;;;;27.35;22.95;;;17.40;99.90;;;;;;5071341;28;20024;-29
2021/01/20 00:50:04;;;;;;;28.50;23.40;;;17.30;99.90;;;;;;5072766;28;20104;-29
2021/01/20 00:52:30;;;;;;;30.30;23.98;;;17.30;99.90;;;;;;5072585;28;20536;-29
2021/01/20 00:54:56;;;;;;;28.77;23.52;;;17.30;99.90;;;;;;5072708;28;20025;-29
2021/01/20 00:57:22;;;;;;;27.30;21.92;;;17.30;99.90;;;;;;5072771;28;20021;-29
2021/01/20 00:59:48;;;;;;;25.08;21.83;;;17.30;99.90;;;;;;5072626;28;20029;-29
2021/01/20 01:02:14;;;;;;;26.70;21.83;;;17.30;99.90;;;;;;5072298;28;20529;-29
2021/01/20 01:04:40;;;;;;;28.30;22.45;;;17.30;99.90;;;;;;5075682;28;20020;-29
2021/01/20 01:07:06;;;;;;;27.50;21.85;;;17.30;99.90;;;;;;5075868;28;20032;-28
2021/01/20 01:09:35;;;;;;;28.63;21.63;;;17.20;99.90;;;;;;5074696;28;20028;-28
2021/01/20 01:12:01;;;;;;;23.63;21.10;;;17.20;99.90;;;;;;5075659;28;20162;-29
2021/01/20 01:14:26;;;;;;;25.48;20.67;;;17.20;99.90;;;;;;5075752;28;20116;-29
2021/01/20 01:16:52;;;;;;;25.50;19.92;;;17.20;99.90;;;;;;5075759;28;20810;-29
2021/01/20 01:19:18;;;;;;;27.77;21.23;;;17.20;99.90;;;;;;5075527;28;20047;-29
2021/01/20 01:21:44;;;;;;;25.77;20.15;;;17.20;99.90;;;;;;5074098;28;20031;-29
2021/01/20 01:24:10;;;;;;;23.65;18.98;;;17.10;99.90;;;;;;5074492;28;20025;-29
2021/01/20 01:26:35;;;;;;;21.65;18.80;;;17.20;99.90;;;;;;5075633;28;20021;-29
2021/01/20 01:29:01;;;;;;;27.17;20.58;;;17.20;99.90;;;;;;5074932;28;20021;-29
2021/01/20 01:31:27;;;;;;;22.63;19.08;;;17.20;99.90;;;;;;5075439;28;20024;-29
2021/01/20 01:33:53;;;;;;;21.20;17.90;;;17.10;99.90;;;;;;5074783;28;20071;-29
2021/01/20 01:36:19;;;;;;;22.95;17.92;;;17.10;99.90;;;;;;5075274;28;20462;-28
2021/01/20 01:38:45;;;;;;;21.73;18.75;;;17.10;99.90;;;;;;5075204;28;20051;-29
2021/01/20 01:41:10;;;;;;;21.42;17.20;;;17.10;99.90;;;;;;5075031;28;20024;-29
2021/01/20 01:43:36;;;;;;;22.33;17.90;;;17.10;99.90;;;;;;5075108;28;20425;-29
2021/01/20 01:46:02;;;;;;;20.85;16.88;;;17.10;99.90;;;;;;5072366;28;20024;-29
2021/01/20 01:48:28;;;;;;;23.58;17.08;;;17.00;99.90;;;;;;5075151;28;20023;-29
2021/01/20 01:50:54;;;;;;;19.92;16.90;;;17.10;99.90;;;;;;5074969;28;20020;-29
2021/01/20 01:53:19;;;;;;;20.50;16.88;;;17.10;99.90;;;;;;5075006;28;20029;-28
2021/01/20 01:55:50;;;;;;;22.55;17.00;;;17.00;99.90;;;;;;5075627;28;20039;-29
2021/01/20 01:58:17;;;;;;;23.48;17.20;;;17.10;99.90;;;;;;5075594;28;20078;-29
2021/01/20 02:00:43;;;;;;;18.88;16.25;;;17.10;99.90;;;;;;5074414;28;20029;-31
2021/01/20 02:03:09;;;;;;;19.90;16.65;;;17.10;99.90;;;;;;5073531;28;20032;-31
2021/01/20 02:05:35;;;;;;;20.88;16.45;;;17.20;99.90;;;;;;5073819;28;20021;-30
2021/01/20 02:08:04;;;;;;;22.63;16.23;;;17.30;99.90;;;;;;5073544;28;20048;-31
2021/01/20 02:10:30;;;;;;;16.65;14.82;;;17.40;99.90;;;;;;5074305;28;20386;-30
2021/01/20 02:13:39;;;;;;;17.60;15.10;;;17.40;99.90;;;;;;5072911;28;20386;-30
2021/01/20 02:16:23;;;;;;;18.42;15.68;;;17.40;99.90;;;;;;5071185;28;20036;-30
2021/01/20 02:18:53;;;;;;;17.92;15.02;;;17.40;99.90;;;;;;5074654;28;20024;-30
2021/01/20 02:21:34;;;;;;;19.58;15.65;;;17.40;99.90;;;;;;5074030;28;20031;-31
2021/01/20 02:24:04;;;;;;;19.15;15.05;;;17.40;99.90;;;;;;5073989;28;20031;-31
2021/01/20 02:26:44;;;;;;;21.05;15.38;;;17.40;99.90;;;;;;5073974;28;20052;-30
2021/01/20 02:29:44;;;;;;;19.38;15.70;;;17.30;99.90;;;;;;5072384;28;20017;-31
2021/01/20 02:32:11;;;;;;;17.13;14.15;;;17.30;99.90;;;;;;5073981;28;20467;-30
2021/01/20 02:34:37;;;;;;;18.10;15.60;;;17.40;99.90;;;;;;5073709;28;20055;-30
2021/01/20 02:37:05;;;;;;;18.97;15.07;;;17.30;99.90;;;;;;5072588;28;20024;-30
2021/01/20 02:39:32;;;;;;;16.45;14.43;;;17.30;99.90;;;;;;5073662;28;20077;-30
2021/01/20 02:42:07;;;;;;;17.55;14.45;;;17.30;99.90;;;;;;5073616;28;20031;-30
2021/01/20 02:44:40;;;;;;;18.13;15.10;;;17.20;99.90;;;;;;5073526;28;20082;-30
2021/01/20 02:47:08;;;;;;;15.68;13.35;;;17.20;99.90;;;;;;5073655;28;20021;-30
2021/01/20 02:49:35;;;;;;;16.10;13.70;;;17.20;99.90;;;;;;5073446;28;20028;-30
2021/01/20 02:52:12;;;;;;;16.15;12.95;;;17.20;99.90;;;;;;5073412;28;20020;-30
2021/01/20 02:54:39;;;;;;;18.58;13.35;;;17.20;99.90;;;;;;5073408;28;20109;-30
2021/01/20 02:57:06;;;;;;;19.02;14.60;;;17.20;99.90;;;;;;5073327;28;20025;-30
2021/01/20 02:59:33;;;;;;;14.60;12.73;;;17.20;99.90;;;;;;5073292;28;20108;-31
2021/01/20 03:02:05;;;;;;;15.20;13.32;;;17.20;99.90;;;;;;5071922;28;20262;-31
2021/01/20 03:04:34;;;;;;;16.60;13.60;;;17.20;99.90;;;;;;5073305;28;20017;-31
2021/01/20 03:07:00;;;;;;;15.52;13.00;;;17.20;99.90;;;;;;5073253;28;20190;-31
2021/01/20 03:09:26;;;;;;;16.05;12.65;;;17.20;99.90;;;;;;5073002;28;20035;-31
2021/01/20 03:11:53;;;;;;;14.90;13.07;;;17.10;99.90;;;;;;5073101;28;20078;-31
2021/01/20 03:14:21;;;;;;;15.63;13.55;;;17.10;99.90;;;;;;5073166;28;20072;-31
2021/01/20 03:16:47;;;;;;;16.20;13.73;;;17.10;99.90;;;;;;5073014;28;20387;-31
2021/01/20 03:19:13;;;;;;;18.30;13.80;;;17.10;99.90;;;;;;5072880;28;20055;-31
2021/01/20 03:21:39;;;;;;;16.63;12.50;;;17.10;99.90;;;;;;5072741;28;20475;-31
2021/01/20 03:24:05;;;;;;;17.55;12.88;;;17.10;99.90;;;;;;5072984;28;20028;-30
2021/01/20 03:26:31;;;;;;;17.05;13.02;;;17.10;99.90;;;;;;5071110;28;20021;-31
2021/01/20 03:28:57;;;;;;;16.20;12.88;;;17.00;99.90;;;;;;5072652;28;20024;-31
2021/01/20 03:31:23;;;;;;;15.80;13.48;;;17.00;99.90;;;;;;5072772;28;20028;-31
2021/01/20 03:33:49;;;;;;;15.35;12.82;;;17.00;99.90;;;;;;5072410;28;20395;-31
2021/01/20 03:36:15;;;;;;;16.48;13.18;;;16.90;99.90;;;;;;5072648;28;20025;-31
2021/01/20 03:38:42;;;;;;;14.07;12.15;;;17.00;99.90;;;;;;5072566;28;20039;-31
2021/01/20 03:41:08;;;;;;;17.30;13.40;;;17.00;99.90;;;;;;5072559;28;20379;-31
2021/01/20 03:43:33;;;;;;;16.23;12.80;;;17.00;99.90;;;;;;5072429;28;20046;-31
2021/01/20 03:46:00;;;;;;;13.48;12.10;;;17.00;99.90;;;;;;5072771;28;20426;-31
2021/01/20 03:48:26;;;;;;;17.20;13.40;;;16.90;99.90;;;;;;5072501;28;20623;-31
2021/01/20 03:50:52;;;;;;;15.13;12.43;;;16.90;99.90;;;;;;5072725;28;20099;-31
2021/01/20 03:53:17;;;;;;;14.00;12.18;;;16.90;99.90;;;;;;5072324;28;20122;-31
2021/01/20 03:55:43;;;;;;;16.20;12.75;;;16.90;99.90;;;;;;5072323;28;20103;-31
2021/01/20 03:58:09;;;;;;;14.85;13.38;;;16.90;99.90;;;;;;5072179;28;20118;-31
2021/01/20 04:00:35;;;;;;;14.98;12.18;;;16.90;99.90;;;;;;5072263;28;20020;-31
2021/01/20 04:03:01;;;;;;;15.98;11.95;;;16.90;99.90;;;;;;5072294;28;20029;-31
2021/01/20 04:05:27;;;;;;;16.73;13.32;;;16.80;99.90;;;;;;5072116;28;20078;-31
2021/01/20 04:07:52;;;;;;;15.73;12.07;;;16.80;99.90;;;;;;5072319;28;20031;-31
2021/01/20 04:10:18;;;;;;;13.07;11.70;;;16.80;99.90;;;;;;5072264;28;20082;-31
2021/01/20 04:12:44;;;;;;;15.52;13.32;;;16.80;99.90;;;;;;5072176;28;20099;-31
2021/01/20 04:15:10;;;;;;;14.25;12.48;;;16.80;99.90;;;;;;5072087;28;20020;-31
2021/01/20 04:17:37;;;;;;;15.75;13.40;;;16.80;99.90;;;;;;5072260;28;20031;-31
2021/01/20 04:20:06;;;;;;;14.57;12.50;;;16.70;99.90;;;;;;5071899;28;20025;-30
2021/01/20 04:22:33;;;;;;;15.93;13.05;;;16.70;99.90;;;;;;5072123;28;20021;-31
2021/01/20 04:24:59;;;;;;;13.67;11.83;;;16.70;99.90;;;;;;5072099;28;20021;-30
2021/01/20 04:27:25;;;;;;;15.57;13.25;;;16.70;99.90;;;;;;5072145;28;20070;-31
2021/01/20 04:29:51;;;;;;;16.33;13.32;;;16.70;99.90;;;;;;5072097;28;20028;-31
2021/01/20 04:32:17;;;;;;;16.27;12.32;;;16.60;99.90;;;;;;5072095;28;20111;-31
2021/01/20 04:34:42;;;;;;;14.48;11.98;;;16.60;99.90;;;;;;5071611;28;20200;-31
2021/01/20 04:37:08;;;;;;;15.23;13.55;;;16.60;99.90;;;;;;5072249;28;20028;-31
2021/01/20 04:39:34;;;;;;;14.15;12.07;;;16.60;99.90;;;;;;5075988;28;20026;-31
2021/01/20 04:42:00;;;;;;;14.70;12.48;;;16.60;99.90;;;;;;5075910;28;20415;-31
2021/01/20 04:44:26;;;;;;;15.63;12.70;;;16.60;99.90;;;;;;5076227;28;20058;-31
2021/01/20 04:46:52;;;;;;;15.57;12.90;;;16.50;99.90;;;;;;5074514;28;20024;-31
2021/01/20 04:49:20;;;;;;;16.83;12.95;;;16.50;99.90;;;;;;5075877;28;20033;-31
2021/01/20 04:51:50;;;;;;;15.90;12.43;;;16.50;99.90;;;;;;5075746;28;20020;-31
2021/01/20 04:54:16;;;;;;;15.55;12.05;;;16.50;99.90;;;;;;5075869;28;20112;-30
2021/01/20 04:56:43;;;;;;;16.98;12.13;;;16.50;99.90;;;;;;5075712;28;20036;-30
2021/01/20 04:59:09;;;;;;;15.18;12.00;;;16.40;99.90;;;;;;5074277;28;20036;-29
2021/01/20 05:01:36;;;;;;;15.75;12.85;;;16.40;99.90;;;;;;5075692;28;20031;-29
2021/01/20 05:04:03;;;;;;;14.55;12.98;;;16.40;99.90;;;;;;5075549;28;20471;-29
2021/01/20 05:06:30;;;;;;;14.98;12.65;;;16.40;99.90;;;;;;5075667;28;20021;-29
2021/01/20 05:08:56;;;;;;;17.30;12.63;;;16.40;99.90;;;;;;5075386;28;20419;-29
2021/01/20 05:11:42;;;;;;;14.32;12.82;;;16.40;99.90;;;;;;5075318;28;20020;-29
2021/01/20 05:14:10;;;;;;;16.15;12.20;;;16.40;99.90;;;;;;5074994;28;20029;-29
2021/01/20 05:16:35;;;;;;;16.38;12.48;;;16.40;99.90;;;;;;5075121;28;20020;-29
2021/01/20 05:19:01;;;;;;;14.23;11.65;;;16.40;99.90;;;;;;5075029;28;20078;-29
2021/01/20 05:21:28;;;;;;;14.23;12.38;;;16.30;99.90;;;;;;5075116;28;20021;-29
2021/01/20 05:23:54;;;;;;;13.15;11.38;;;16.30;99.90;;;;;;5073762;28;20024;-29
2021/01/20 05:26:20;;;;;;;14.85;11.48;;;16.30;99.90;;;;;;5074985;28;20378;-29
2021/01/20 05:28:46;;;;;;;14.35;11.52;;;16.30;99.90;;;;;;5074927;28;20016;-29
2021/01/20 05:31:25;;;;;;;14.57;13.05;;;16.30;99.90;;;;;;5075548;28;20024;-29
2021/01/20 05:33:51;;;;;;;13.13;11.65;;;16.30;99.90;;;;;;5073660;28;20049;-29
2021/01/20 05:36:17;;;;;;;14.98;12.73;;;16.30;99.90;;;;;;5072951;28;20060;-29
2021/01/20 05:38:47;;;;;;;15.73;12.32;;;16.20;99.90;;;;;;5073148;28;20116;-29
2021/01/20 05:41:23;;;;;;;14.52;11.73;;;16.30;99.90;;;;;;5069541;28;20107;-30
2021/01/20 05:43:53;;;;;;;16.00;12.75;;;16.30;99.90;;;;;;5073017;28;20025;-30
2021/01/20 05:46:33;;;;;;;16.30;11.60;;;16.30;99.90;;;;;;5073687;28;20052;-30
2021/01/20 05:49:00;;;;;;;13.50;11.65;;;16.20;99.90;;;;;;5073183;28;20012;-29
2021/01/20 05:51:26;;;;;;;14.25;11.73;;;16.20;99.90;;;;;;5071357;28;20367;-31
2021/01/20 05:53:54;;;;;;;15.88;12.13;;;16.20;99.90;;;;;;5072104;28;20052;-31
2021/01/20 05:56:30;;;;;;;12.55;11.15;;;16.20;99.90;;;;;;5073362;28;20028;-31
2021/01/20 05:58:57;;;;;;;16.13;12.38;;;16.20;99.90;;;;;;5052999;28;20122;-31
2021/01/20 06:01:24;;;;;;;15.27;12.35;;;16.20;99.90;;;;;;5053315;28;20039;-31
2021/01/20 06:03:50;;;;;;;14.73;11.70;;;16.20;99.90;;;;;;5053228;28;20013;-32
2021/01/20 06:06:17;;;;;;;13.82;11.65;;;16.20;99.90;;;;;;5051883;28;20020;-31
2021/01/20 06:08:43;;;;;;;12.75;11.45;;;16.20;99.90;;;;;;5053270;28;20175;-31
2021/01/20 06:11:10;;;;;;;15.43;11.80;;;16.10;99.90;;;;;;5073073;28;20028;-31
2021/01/20 06:13:36;;;;;;;15.05;12.15;;;16.10;99.90;;;;;;5073056;28;20029;-31
2021/01/20 06:16:15;;;;;;;15.80;12.13;;;16.10;99.90;;;;;;5072814;28;20104;-30
2021/01/20 06:19:07;;;;;;;14.55;11.63;;;16.10;99.90;;;;;;5073041;28;20066;-30
2021/01/20 06:21:35;;;;;;;12.75;11.23;;;16.10;99.90;;;;;;5072897;28;20522;-30
2021/01/20 06:24:06;;;;;;;13.30;11.45;;;16.20;99.90;;;;;;5072891;28;20070;-31
2021/01/20 06:26:40;;;;;;;18.77;11.63;;;16.20;99.90;;;;;;5072802;28;20090;-30
2021/01/20 06:29:07;;;;;;;14.68;11.68;;;16.10;99.90;;;;;;5073017;28;20032;-30
2021/01/20 06:31:41;;;;;;;15.77;11.60;;;16.10;99.90;;;;;;5072871;28;20044;-31
2021/01/20 06:34:07;;;;;;;15.50;11.85;;;16.10;99.90;;;;;;5038806;28;967474;-31
2021/01/20 06:36:34;;;;;;;15.88;11.60;;;16.10;99.90;;;;;;5072037;28;20467;-31
2021/01/20 06:39:20;;;;;;;13.70;12.30;;;16.10;99.90;;;;;;5073748;28;20021;-31
2021/01/20 06:41:46;;;;;;;12.75;10.90;;;16.10;99.90;;;;;;5073280;28;20478;-31
2021/01/20 06:44:14;;;;;;;13.05;11.18;;;16.10;99.90;;;;;;5073539;28;20032;-31
2021/01/20 06:46:58;;;;;;;14.88;12.32;;;16.10;99.90;;;;;;5073245;28;20032;-31
2021/01/20 06:49:28;;;;;;;14.15;11.13;;;16.10;99.90;;;;;;5073710;28;20577;-30
2021/01/20 06:52:14;;;;;;;14.25;11.48;;;16.10;99.90;;;;;;5071685;28;20036;-31
2021/01/20 06:54:41;;;;;;;13.80;11.05;;;16.10;99.90;;;;;;5073321;28;20032;-31
2021/01/20 06:57:25;;;;;;;14.75;11.40;;;16.10;99.90;;;;;;5072606;28;20019;-32
2021/01/20 07:00:13;;;;;;;16.58;11.93;;;16.10;99.90;;;;;;5071171;28;20056;-32
2021/01/20 07:03:03;;;;;;;12.55;10.90;;;16.10;99.90;;;;;;5073039;28;20020;-32
2021/01/20 07:05:37;;;;;;;13.98;11.45;;;16.10;99.90;;;;;;5064279;28;20060;-33
2021/01/20 07:08:04;;;;;;;11.60;10.43;;;16.10;99.90;;;;;;5080799;28;20063;-32
2021/01/20 07:10:51;;;;;;;14.52;12.27;;;16.10;99.90;;;;;;5072351;28;20074;-33
2021/01/20 07:13:19;;;;;;;12.23;10.60;;;16.10;99.90;;;;;;5080534;28;20281;-32
2021/01/20 07:15:52;;;;;;;14.32;11.00;;;16.10;99.90;;;;;;5078567;28;20032;-32
2021/01/20 07:18:20;;;;;;;13.07;11.25;;;16.10;99.90;;;;;;5071846;28;20025;-31
2021/01/20 07:20:45;;;;;;;;;;;16.20;99.90;;;;;;5072840;28;20047;-33
2021/01/20 07:23:11;;;;;;;12.68;10.52;;;16.20;99.90;;;;;;5072645;28;19904;-32
2021/01/20 07:25:37;;;;;;;15.13;11.15;;;16.20;99.90;;;;;;5072451;28;20024;-32
2021/01/20 07:28:04;;;;;;;11.95;10.65;;;16.20;99.90;;;;;;5072571;28;20028;-31
2021/01/20 07:30:30;;;;;;;14.93;10.75;;;16.20;99.90;;;;;;5072488;28;20104;-31
2021/01/20 07:32:57;;;;;;;11.45;10.25;;;16.20;99.90;;;;;;5071477;28;20103;-33
2021/01/20 07:35:28;;;;;;;16.60;11.80;;;16.20;99.90;;;;;;5072347;28;20098;-32
2021/01/20 07:38:04;;;;;;;11.52;10.00;;;16.30;99.90;;;;;;5072379;28;20024;-32
2021/01/20 07:40:32;;;;;;;14.60;11.55;;;16.30;99.90;;;;;;5072364;28;20032;-32
2021/01/20 07:42:59;;;;;;;11.77;10.05;;;16.30;99.90;;;;;;5072526;28;20032;-32
2021/01/20 07:45:43;;;;;;;12.18;10.52;;;16.30;99.90;;;;;;5072088;28;20048;-32
2021/01/20 07:48:09;;;;;;;13.35;10.27;;;16.30;99.90;;;;;;5072346;28;20063;-33
2021/01/20 07:50:48;;;;;;;11.98;10.63;;;16.30;99.90;;;;;;5071997;28;20020;-32
2021/01/20 07:53:18;;;;;;;12.65;9.75;;;16.30;99.90;;;;;;5072328;28;20028;-31
2021/01/20 07:55:46;;;;;;;12.43;10.13;;;16.40;99.90;;;;;;5072111;28;20029;-31
2021/01/20 07:58:13;;;;;;;12.02;9.85;;;16.40;99.90;;;;;;5072300;28;20077;-31
2021/01/20 08:00:47;;;;;;;12.85;11.13;;;16.40;99.90;;;;;;5072078;28;20025;-32
2021/01/20 08:03:14;;;;;;;15.98;10.75;;;16.40;99.90;;;;;;5072027;28;20024;-32
2021/01/20 08:05:42;;;;;;;11.55;9.95;;;16.40;99.90;;;;;;5072444;28;20029;-31
2021/01/20 08:08:12;;;;;;;17.35;11.38;;;16.40;99.90;;;;;;5072175;28;20039;-31
2021/01/20 08:10:39;;;;;;;14.50;11.13;;;16.50;99.90;;;;;;5061630;28;20066;-32
2021/01/20 08:13:08;;;;;;;12.43;10.45;;;16.50;99.90;;;;;;5071766;28;20017;-31
2021/01/20 08:15:38;;;;;;;14.70;10.00;;;16.50;99.90;;;;;;5071081;28;20040;-32
2021/01/20 08:18:05;;;;;;;13.18;10.05;;;16.50;99.90;;;;;;5071259;28;20035;-31
2021/01/20 08:20:33;;;;;;;13.17;9.73;;;16.50;99.90;;;;;;5071456;28;20153;-31
2021/01/20 08:23:00;;;;;;;16.85;10.43;;;16.50;99.90;;;;;;5071682;28;20020;-31
2021/01/20 08:25:26;;;;;;;15.43;9.70;;;16.60;99.90;;;;;;5071551;28;20070;-31
2021/01/20 08:27:52;;;;;;;17.42;10.73;;;16.60;99.90;;;;;;5071249;28;20013;-31
2021/01/20 08:30:34;;;;;;;12.90;9.63;;;16.60;99.90;;;;;;5071856;28;20041;-31
2021/01/20 08:33:00;;;;;;;13.15;9.40;;;16.60;99.90;;;;;;5071807;28;20476;-31
2021/01/20 08:35:32;;;;;;;13.90;10.48;;;16.70;99.90;;;;;;5070913;28;20405;-31
2021/01/20 08:37:58;;;;;;;12.45;10.65;;;16.70;99.90;;;;;;5071206;28;20025;-31
2021/01/20 08:40:24;;;;;;;10.95;9.82;;;16.70;99.90;;;;;;5070925;28;20475;-31
2021/01/20 08:42:50;;;;;;;13.82;9.82;;;16.70;99.90;;;;;;5071334;28;20078;-31
2021/01/20 08:45:22;;;;;;;14.07;9.73;;;16.70;99.90;;;;;;5070753;28;20025;-31
2021/01/20 08:47:49;;;;;;;13.13;10.80;;;16.80;99.90;;;;;;5071435;28;20408;-31
2021/01/20 08:50:35;;;;;;;12.95;10.52;;;16.80;99.90;;;;;;5071474;28;20028;-31
2021/01/20 08:53:12;;;;;;;11.68;10.10;;;16.80;99.90;;;;;;5071371;28;20077;-31
2021/01/20 08:55:40;;;;;;;13.40;10.73;;;16.80;99.90;;;;;;5071527;28;20111;-31
2021/01/20 08:58:20;;;;;;;15.20;12.68;;;16.80;99.90;;;;;;5071334;28;20078;-30
2021/01/20 09:00:50;;;;;;;17.13;11.77;;;16.80;99.90;;;;;;5069337;28;20070;-29
2021/01/20 09:03:40;;;;;;;16.15;12.23;;;16.90;99.90;;;;;;5069681;28;20490;-29
2021/01/20 09:06:14;;;;;;;26.90;22.48;;;16.80;99.90;;;;;;5070585;28;20037;-30
2021/01/20 09:08:40;;;;;;;33.15;26.05;;;17.00;99.90;;;;;;5071771;28;20063;-29
2021/01/20 09:11:06;;;;;;;31.42;27.83;;;17.00;99.90;;;;;;5071798;28;20445;-29
2021/01/20 09:13:32;;;;;;;38.65;32.00;;;17.00;99.90;;;;;;5072407;28;20021;-29
2021/01/20 09:15:58;;;;;;;42.15;34.80;;;17.10;99.90;;;;;;5072166;28;20032;-30
2021/01/20 09:18:25;;;;;;;30.27;26.95;;;17.10;99.90;;;;;;5069126;28;21319;-31
2021/01/20 09:20:55;;;;;;;31.45;26.83;;;17.10;99.90;;;;;;5054987;28;20040;-31
2021/01/20 09:23:21;;;;;;;35.80;25.88;;;17.10;99.90;;;;;;5050836;28;20110;-31
2021/01/20 09:25:48;;;;;;;31.30;22.05;;;17.00;99.90;;;;;;5068735;28;20025;-31
2021/01/20 09:28:14;;;;;;;34.35;21.65;;;17.00;99.90;;;;;;5073185;28;20534;-30
2021/01/20 09:30:40;;;;;;;33.35;22.63;;;17.00;99.90;;;;;;5075662;28;20446;-30
2021/01/20 09:33:05;;;;;;;25.85;19.10;;;17.00;99.90;;;;;;5075348;28;20029;-29
2021/01/20 09:35:32;;;;;;;24.95;17.63;;;17.00;99.90;;;;;;5074551;28;20059;-29
2021/01/20 09:37:59;;;;;;;25.35;17.10;;;16.90;99.90;;;;;;5073580;28;20043;-30
2021/01/20 09:40:27;;;;;;;27.13;17.60;;;16.90;99.90;;;;;;5066795;28;20021;-29
2021/01/20 09:42:54;;;;;;;22.00;14.07;;;16.80;99.90;;;;;;5071114;28;20054;-29
2021/01/20 09:45:28;;;;;;;21.15;16.05;;;16.80;99.90;;;;;;5074538;28;20023;-28
2021/01/20 09:47:59;;;;;;;21.00;13.98;;;16.80;99.90;;;;;;5074809;28;20078;-29
2021/01/20 09:50:26;;;;;;;22.00;16.88;;;16.80;99.90;;;;;;5071920;28;20470;-29
2021/01/20 09:52:52;;;;;;;24.13;16.67;;;16.80;99.90;;;;;;5074484;28;20029;-29
2021/01/20 09:55:20;;;;;;;21.67;16.48;;;16.80;99.90;;;;;;5074458;28;20108;-28
2021/01/20 09:57:46;;;;;;;24.77;16.10;;;16.80;99.90;;;;;;5072140;28;20448;-29
2021/01/20 10:00:12;;;;;;;22.10;16.27;;;16.80;99.90;;;;;;5074490;28;20104;-29
2021/01/20 10:02:40;;;;;;;23.23;15.10;;;16.80;99.90;;;;;;5074524;28;20448;-29
2021/01/20 10:05:06;;;;;;;;;;;16.80;99.90;;;;;;5072651;28;20023;-29
2021/01/20 10:07:32;;;;;;;31.77;15.55;;;16.80;99.90;;;;;;5073551;28;19951;-28
2021/01/20 10:09:58;;;;;;;23.08;15.57;;;16.90;99.90;;;;;;5073456;28;20048;-29
2021/01/20 10:12:25;;;;;;;21.50;16.20;;;16.90;99.90;;;;;;5073492;28;20448;-29
2021/01/20 10:14:51;;;;;;;31.50;17.55;;;16.90;99.90;;;;;;5072304;28;20060;-29
2021/01/20 10:17:17;;;;;;;17.15;13.82;;;17.00;99.90;;;;;;5073677;28;20359;-29
2021/01/20 10:19:42;;;;;;;20.88;14.88;;;17.00;99.90;;;;;;5074010;28;20134;-29
2021/01/20 10:22:08;;;;;;;18.25;14.45;;;16.90;99.90;;;;;;5073479;28;20558;-29
2021/01/20 10:24:34;;;;;;;25.20;14.13;;;16.90;99.90;;;;;;5073433;28;20513;-29
2021/01/20 10:27:01;;;;;;;76.53;57.38;;;16.90;99.90;;;;;;5073950;28;20085;-29
2021/01/20 10:29:27;;;;;;;63.83;47.55;;;17.00;99.90;;;;;;5081698;28;20115;-29
2021/01/20 10:31:55;;;;;;;145.40;107.32;;;17.00;99.90;;;;;;5114285;28;20440;-29
2021/01/20 10:34:22;;;;;;;110.63;86.18;;;17.10;99.90;;;;;;5104741;28;20036;-29
2021/01/20 10:36:48;;;;;;;88.15;67.78;;;17.10;99.90;;;;;;5092806;28;20020;-29
2021/01/20 10:39:14;;;;;;;64.55;51.85;;;17.20;99.90;;;;;;5092906;28;20030;-29
2021/01/20 10:41:39;;;;;;;52.35;41.35;;;17.20;99.90;;;;;;5093645;28;20095;-29
2021/01/20 10:44:06;;;;;;;44.90;33.60;;;17.20;99.90;;;;;;5089275;28;20399;-29
2021/01/20 10:46:32;;;;;;;42.08;34.42;;;17.20;99.90;;;;;;5098708;28;20031;-29
2021/01/20 10:49:01;;;;;;;54.65;44.33;;;17.10;99.90;;;;;;5102817;28;20462;-29
2021/01/20 10:51:28;;;;;;;40.47;33.15;;;17.20;99.90;;;;;;5103927;28;20099;-29
2021/01/20 10:53:54;;;;;;;34.65;29.50;;;17.10;99.90;;;;;;5101753;28;20043;-29
2021/01/20 10:56:20;;;;;;;38.53;26.60;;;17.10;99.90;;;;;;5102391;28;20482;-29
2021/01/20 10:58:46;;;;;;;34.60;26.02;;;17.10;99.90;;;;;;5103106;28;20027;-29
2021/01/20 11:01:12;;;;;;;36.78;28.17;;;17.10;99.90;;;;;;5092011;28;20028;-29
2021/01/20 11:03:39;;;;;;;32.15;26.83;;;17.10;99.90;;;;;;5089663;28;20017;-29
2021/01/20 11:06:09;;;;;;;36.88;30.05;;;17.20;99.90;;;;;;5092485;28;20046;-29
2021/01/20 11:08:34;;;;;;;37.78;29.25;;;17.30;99.90;;;;;;5092329;28;20035;-29
2021/01/20 11:11:01;;;;;;;35.40;30.75;;;17.30;99.90;;;;;;5092280;28;20028;-29
2021/01/20 11:13:27;;;;;;;42.17;35.40;;;17.30;99.90;;;;;;5092284;28;20039;-29
2021/01/20 11:15:53;;;;;;;43.85;35.08;;;17.40;99.90;;;;;;5096784;28;20120;-29
2021/01/20 11:18:19;;;;;;;44.15;36.25;;;17.40;99.90;;;;;;5108680;28;20032;-29
2021/01/20 11:20:47;;;;;;;46.90;36.20;;;17.50;99.90;;;;;;5085072;28;20034;-29
2021/01/20 11:23:16;;;;;;;42.22;36.10;;;17.50;99.90;;;;;;5097388;28;20431;-29
2021/01/20 11:25:47;;;;;;;41.33;33.83;;;17.50;99.90;;;;;;5091842;28;20385;-29
2021/01/20 11:28:14;;;;;;;41.00;32.03;;;17.50;99.90;;;;;;5093151;28;20051;-29
2021/01/20 11:30:41;;;;;;;44.33;34.38;;;17.50;99.90;;;;;;5095953;28;20040;-29
2021/01/20 11:33:08;;;;;;;38.60;32.28;;;17.50;99.90;;;;;;5092131;28;20512;-27
2021/01/20 11:35:34;;;;;;;37.20;30.67;;;17.60;99.90;;;;;;5072684;28;20052;-28
2021/01/20 11:38:00;;;;;;;38.08;29.98;;;17.60;99.90;;;;;;5071798;28;20440;-28
2021/01/20 11:40:30;;;;;;;37.45;29.35;;;17.60;99.90;;;;;;5071455;28;20108;-27
2021/01/20 11:42:57;;;;;;;31.77;26.38;;;17.60;99.90;;;;;;5071422;28;20024;-28
2021/01/20 11:45:31;;;;;;;43.05;31.25;;;17.60;99.90;;;;;;5053490;28;20025;-28
2021/01/20 11:47:57;;;;;;;88.35;70.47;;;17.60;99.90;;;;;;5071301;28;20048;-28
2021/01/20 11:50:24;;;;;;;91.43;70.32;;;17.60;99.90;;;;;;5071691;28;20044;-28
2021/01/20 11:52:51;;;;;;;85.53;68.18;;;17.60;99.90;;;;;;5053868;28;20057;-28
2021/01/20 11:55:17;;;;;;;90.50;70.35;;;17.60;99.90;;;;;;5071521;28;20086;-28
2021/01/20 11:57:43;;;;;;;92.45;70.80;;;17.60;99.90;;;;;;5071903;28;20024;-28
2021/01/20 12:00:10;;;;;;;93.35;73.05;;;17.70;99.90;;;;;;5070572;28;20096;-28
2021/01/20 12:02:37;;;;;;;94.85;74.43;;;17.70;99.90;;;;;;5070759;28;20028;-28
2021/01/20 12:05:05;;;;;;;111.03;85.32;;;17.70;99.90;;;;;;5070913;28;20035;-28
2021/01/20 12:07:33;;;;;;;;;;;17.70;99.90;;;;;;5053836;28;20024;-28
2021/01/20 12:09:59;;;;;;;104.40;81.60;;;17.70;99.90;;;;;;5071324;28;20007;-28
2021/01/20 12:12:25;;;;;;;108.28;84.43;;;17.70;99.90;;;;;;5071339;28;20123;-28
2021/01/20 12:14:51;;;;;;;103.45;85.70;;;17.70;99.90;;;;;;5071023;28;20020;-28
2021/01/20 12:17:17;;;;;;;114.22;87.43;;;17.70;99.90;;;;;;5071171;28;20040;-29
2021/01/20 12:19:43;;;;;;;110.03;87.03;;;17.70;99.90;;;;;;5070904;28;20497;-28
2021/01/20 12:22:08;;;;;;;111.68;85.18;;;17.70;99.90;;;;;;5070978;28;20036;-28
2021/01/20 12:24:34;;;;;;;119.82;94.05;;;17.70;99.90;;;;;;5070979;28;20101;-28
2021/01/20 12:27:00;;;;;;;124.10;102.20;;;17.70;99.90;;;;;;5071021;28;20516;-29
2021/01/20 12:29:26;;;;;;;146.23;113.40;;;17.70;99.90;;;;;;5070930;28;20081;-28
2021/01/20 12:31:52;;;;;;;142.38;113.32;;;17.70;99.90;;;;;;5071043;28;20033;-28
2021/01/20 12:34:18;;;;;;;144.02;117.35;;;17.70;99.90;;;;;;5079077;28;20047;-28